createdAt,value
2017-11-04T00:01:05.287Z,96685.13
2017-11-04T00:03:31.530Z,96687.47
2017-11-04T00:05:57.621Z,96682.08
2017-11-04T00:08:23.746Z,96682.27
2017-11-04T00:10:49.907Z,96687.35
2017-11-04T00:13:15.992Z,96685.00
2017-11-04T00:15:42.029Z,96682.08
2017-11-04T00:18:08.194Z,96686.11
2017-11-04T00:20:34.572Z,96686.03
2017-11-04T00:23:00.750Z,96684.11
2017-11-04T00:25:33.945Z,96683.80
2017-11-04T00:28:00.070Z,96684.58
2017-11-04T00:30:26.168Z,96683.80
2017-11-04T00:32:52.454Z,96682.54
2017-11-04T00:35:18.511Z,96685.98
2017-11-04T00:37:44.727Z,96682.92
2017-11-04T00:40:10.856Z,96682.69
2017-11-04T00:42:37.101Z,96682.36
2017-11-04T00:45:03.255Z,96679.37
2017-11-04T00:47:29.356Z,96681.35
2017-11-04T00:49:55.570Z,96675.03
2017-11-04T00:52:21.827Z,96672.75
2017-11-04T00:54:47.937Z,96671.09
2017-11-04T00:57:13.975Z,96668.80
2017-11-04T00:59:40.214Z,96671.27
2017-11-04T01:02:06.720Z,96670.79
2017-11-04T01:04:32.738Z,96666.29
2017-11-04T01:06:58.771Z,96675.61
2017-11-04T01:09:24.927Z,96670.71
2017-11-04T01:11:50.909Z,96674.48
2017-11-04T01:14:16.992Z,96671.11
2017-11-04T01:16:43.136Z,96669.00
2017-11-04T01:19:09.175Z,96668.10
2017-11-04T01:21:36.146Z,96673.13
2017-11-04T01:24:03.017Z,96669.80
2017-11-04T01:26:29.184Z,96664.55
2017-11-04T01:28:55.290Z,96671.48
2017-11-04T01:31:21.326Z,96673.33
2017-11-04T01:33:47.456Z,96670.52
2017-11-04T01:36:13.563Z,96678.13
2017-11-04T01:38:39.700Z,96672.02
2017-11-04T01:41:05.776Z,96669.68
2017-11-04T01:43:31.824Z,96671.13
2017-11-04T01:45:57.872Z,96661.44
2017-11-04T01:48:23.994Z,96666.61
2017-11-04T01:50:50.164Z,96665.12
2017-11-04T01:53:16.256Z,96665.23
2017-11-04T01:55:42.358Z,96666.23
2017-11-04T01:58:08.414Z,96664.83
2017-11-04T02:00:34.555Z,96673.27
2017-11-04T02:03:00.650Z,96670.87
2017-11-04T02:05:26.804Z,96666.89
2017-11-04T02:07:52.946Z,96678.87
2017-11-04T02:10:19.058Z,96677.97
2017-11-04T02:12:45.064Z,96675.86
2017-11-04T02:15:11.178Z,96679.92
2017-11-04T02:17:37.252Z,96671.94
2017-11-04T02:20:03.453Z,96672.49
2017-11-04T02:22:29.630Z,96680.88
2017-11-04T02:24:55.777Z,96684.89
2017-11-04T02:27:21.882Z,96682.42
2017-11-04T02:29:48.406Z,96682.70
2017-11-04T02:32:14.565Z,96677.73
2017-11-04T02:34:40.641Z,96675.72
2017-11-04T02:37:07.187Z,96672.91
2017-11-04T02:39:33.279Z,96671.96
2017-11-04T02:41:59.383Z,96676.35
2017-11-04T02:44:25.692Z,96677.10
2017-11-04T02:46:51.831Z,96675.73
2017-11-04T02:49:17.888Z,96670.57
2017-11-04T02:51:43.957Z,96671.05
2017-11-04T02:54:10.003Z,96672.68
2017-11-04T02:56:36.091Z,96668.06
2017-11-04T02:59:02.140Z,96665.28
2017-11-04T03:01:28.189Z,96656.43
2017-11-04T03:03:54.254Z,96664.89
2017-11-04T03:06:20.443Z,96662.73
2017-11-04T03:08:46.587Z,96660.55
2017-11-04T03:11:12.684Z,96662.38
2017-11-04T03:13:38.820Z,96664.61
2017-11-04T03:16:04.893Z,96662.58
2017-11-04T03:18:31.036Z,96658.39
2017-11-04T03:20:57.177Z,96660.78
2017-11-04T03:23:23.231Z,96663.86
2017-11-04T03:25:49.317Z,96656.58
2017-11-04T03:28:16.142Z,96660.92
2017-11-04T03:30:42.382Z,96654.66
2017-11-04T03:33:08.363Z,96665.70
2017-11-04T03:35:34.518Z,96666.25
2017-11-04T03:38:00.572Z,96660.77
2017-11-04T03:40:26.711Z,96659.15
2017-11-04T03:42:52.870Z,96653.35
2017-11-04T03:45:18.918Z,96642.20
2017-11-04T03:47:45.082Z,96637.22
2017-11-04T03:50:11.269Z,96633.94
2017-11-04T03:52:37.333Z,96639.41
2017-11-04T03:55:03.432Z,96642.57
2017-11-04T03:57:29.639Z,96647.70
2017-11-04T03:59:55.737Z,96646.77
2017-11-04T04:02:21.818Z,96641.09
2017-11-04T04:04:47.958Z,96644.89
2017-11-04T04:07:14.009Z,96646.02
2017-11-04T04:09:40.202Z,96650.20
2017-11-04T04:12:06.441Z,96655.82
2017-11-04T04:14:32.463Z,96650.65
2017-11-04T04:16:58.479Z,96657.41
2017-11-04T04:19:24.687Z,96661.83
2017-11-04T04:21:50.797Z,96653.30
2017-11-04T04:24:16.963Z,96652.79
2017-11-04T04:26:43.003Z,96649.50
2017-11-04T04:29:09.006Z,96654.95
2017-11-04T04:31:35.092Z,96653.11
2017-11-04T04:34:01.221Z,96653.73
2017-11-04T04:36:27.344Z,96660.59
2017-11-04T04:38:53.368Z,96658.68
2017-11-04T04:41:19.548Z,96661.42
2017-11-04T04:43:45.756Z,96659.66
2017-11-04T04:46:11.996Z,96661.94
2017-11-04T04:48:38.116Z,96657.56
2017-11-04T04:51:04.238Z,96655.05
2017-11-04T04:53:30.287Z,96651.61
2017-11-04T04:55:56.535Z,96652.04
2017-11-04T04:58:22.738Z,96648.88
2017-11-04T05:00:48.880Z,96641.31
2017-11-04T05:03:15.128Z,96647.50
2017-11-04T05:05:41.408Z,96647.07
2017-11-04T05:08:07.632Z,96643.55
2017-11-04T05:10:33.934Z,96641.39
2017-11-04T05:13:00.043Z,96639.56
2017-11-04T05:15:26.274Z,96641.39
2017-11-04T05:17:52.332Z,96641.01
2017-11-04T05:20:18.478Z,96639.28
2017-11-04T05:22:44.622Z,96641.64
2017-11-04T05:25:10.723Z,96646.25
2017-11-04T05:27:36.859Z,96640.40
2017-11-04T05:30:03.034Z,96643.61
2017-11-04T05:32:29.134Z,96634.49
2017-11-04T05:34:55.280Z,96635.59
2017-11-04T05:37:21.362Z,96631.13
2017-11-04T05:39:47.542Z,96628.94
2017-11-04T05:42:13.640Z,96627.61
2017-11-04T05:44:39.756Z,96628.59
2017-11-04T05:47:06.418Z,96627.18
2017-11-04T05:49:32.557Z,96619.98
2017-11-04T05:51:58.766Z,96626.48
2017-11-04T05:54:25.457Z,96630.55
2017-11-04T05:56:51.606Z,96626.91
2017-11-04T05:59:17.772Z,96632.70
2017-11-04T06:01:43.948Z,96633.48
2017-11-04T06:04:10.040Z,96635.75
2017-11-04T06:06:36.208Z,96633.83
2017-11-04T06:09:02.425Z,96630.74
2017-11-04T06:11:28.592Z,96638.92
2017-11-04T06:13:54.758Z,96643.03
2017-11-04T06:16:20.980Z,96644.12
2017-11-04T06:18:46.979Z,96640.84
2017-11-04T06:21:13.064Z,96645.93
2017-11-04T06:23:39.425Z,96644.17
2017-11-04T06:26:05.438Z,96648.08
2017-11-04T06:28:31.503Z,96648.63
2017-11-04T06:30:57.591Z,96654.45
2017-11-04T06:33:23.764Z,96651.02
2017-11-04T06:35:49.845Z,96654.06
2017-11-04T06:38:16.544Z,96660.41
2017-11-04T06:40:42.684Z,96655.52
2017-11-04T06:43:08.725Z,96657.55
2017-11-04T06:45:34.826Z,96665.05
2017-11-04T06:48:00.954Z,96667.75
2017-11-04T06:50:27.202Z,96666.58
2017-11-04T06:52:53.506Z,96669.41
2017-11-04T06:55:26.484Z,96670.49
2017-11-04T06:57:52.706Z,96677.30
2017-11-04T07:00:18.929Z,96677.27
2017-11-04T07:02:52.569Z,96672.83
2017-11-04T07:05:19.392Z,96676.55
2017-11-04T07:07:45.620Z,96676.94
2017-11-04T07:10:11.790Z,96673.24
2017-11-04T07:12:37.963Z,96676.36
2017-11-04T07:15:04.138Z,96674.23
2017-11-04T07:17:30.242Z,96685.50
2017-11-04T07:19:57.362Z,96679.05
2017-11-04T07:22:23.562Z,96683.98
2017-11-04T07:24:49.646Z,96677.00
2017-11-04T07:30:26.635Z,96681.81
2017-11-04T07:33:02.253Z,96681.41
2017-11-04T07:35:47.049Z,96678.98
2017-11-04T07:44:09.544Z,96689.14
2017-11-04T07:46:56.329Z,96689.45
2017-11-04T07:49:33.997Z,96691.52
2017-11-04T07:52:01.625Z,96694.44
2017-11-04T07:54:47.072Z,96690.27
2017-11-04T07:57:13.932Z,96689.74
2017-11-04T07:59:40.387Z,96693.20
2017-11-04T08:02:06.452Z,96690.68
2017-11-04T08:04:32.861Z,96691.81
2017-11-04T08:06:59.680Z,96691.20
2017-11-04T08:09:25.709Z,96689.78
2017-11-04T08:11:51.885Z,96682.45
2017-11-04T08:14:19.041Z,96692.99
2017-11-04T08:16:45.127Z,96688.55
2017-11-04T08:19:17.136Z,96686.00
2017-11-04T08:21:43.670Z,96689.08
2017-11-04T08:24:09.894Z,96688.06
2017-11-04T08:26:36.082Z,96679.72
2017-11-04T08:29:02.413Z,96683.55
2017-11-04T08:31:28.600Z,96678.69
2017-11-04T08:33:54.954Z,96674.64
2017-11-04T08:36:21.102Z,96681.03
2017-11-04T08:38:47.890Z,96682.27
2017-11-04T08:41:14.127Z,96682.59
2017-11-04T08:43:40.365Z,96679.58
2017-11-04T08:46:06.667Z,96670.81
2017-11-04T08:48:33.975Z,96674.23
2017-11-04T08:51:00.251Z,96676.09
2017-11-04T08:53:26.444Z,96675.10
2017-11-04T08:55:52.649Z,96678.60
2017-11-04T08:58:18.961Z,96671.83
2017-11-04T09:00:45.140Z,96671.03
2017-11-04T09:03:11.376Z,96667.78
2017-11-04T09:05:37.546Z,96665.52
2017-11-04T09:08:04.014Z,96665.08
2017-11-04T09:10:30.394Z,96663.69
2017-11-04T09:12:56.452Z,96663.28
2017-11-04T09:15:23.209Z,96667.55
2017-11-04T09:17:49.609Z,96665.05
2017-11-04T09:20:15.839Z,96668.06
2017-11-04T09:22:41.955Z,96669.50
2017-11-04T09:25:08.263Z,96670.00
2017-11-04T09:27:34.353Z,96658.34
2017-11-04T09:30:00.471Z,96662.55
2017-11-04T09:32:27.042Z,96666.91
2017-11-04T09:34:53.242Z,96668.51
2017-11-04T09:37:19.485Z,96666.34
2017-11-04T09:39:45.538Z,96662.91
2017-11-04T09:42:11.624Z,96654.34
2017-11-04T09:44:37.708Z,96648.93
2017-11-04T09:47:03.953Z,96646.42
2017-11-04T09:49:30.165Z,96650.28
2017-11-04T09:51:56.484Z,96648.64
2017-11-04T09:54:22.997Z,96647.43
2017-11-04T09:56:49.260Z,96639.53
2017-11-04T09:59:15.480Z,96645.44
2017-11-04T10:01:43.156Z,96639.90
2017-11-04T10:04:09.308Z,96631.80
2017-11-04T10:06:35.414Z,96630.06
2017-11-04T10:09:01.592Z,96635.42
2017-11-04T10:11:27.650Z,96631.38
2017-11-04T10:13:53.759Z,96627.10
2017-11-04T10:16:20.238Z,96627.88
2017-11-04T10:18:46.292Z,96625.70
2017-11-04T10:21:12.393Z,96624.41
2017-11-04T10:23:39.072Z,96632.89
2017-11-04T10:26:05.126Z,96635.69
2017-11-04T10:28:31.380Z,96626.59
2017-11-04T10:30:57.473Z,96626.97
2017-11-04T10:33:23.533Z,96615.70
2017-11-04T10:35:49.615Z,96616.86
2017-11-04T10:38:16.039Z,96617.66
2017-11-04T10:40:43.300Z,96605.39
2017-11-04T10:43:09.377Z,96599.15
2017-11-04T10:45:35.430Z,96599.02
2017-11-04T10:48:01.466Z,96600.77
2017-11-04T10:50:27.657Z,96594.59
2017-11-04T10:52:53.962Z,96592.41
2017-11-04T10:55:20.254Z,96590.10
2017-11-04T10:57:49.103Z,96594.02
2017-11-04T11:00:15.234Z,96593.70
2017-11-04T11:02:41.828Z,96583.17
2017-11-04T11:05:08.035Z,96584.31
2017-11-04T11:07:34.084Z,96581.96
2017-11-04T11:10:00.170Z,96577.09
2017-11-04T11:12:26.208Z,96580.57
2017-11-04T11:14:52.678Z,96573.53
2017-11-04T11:17:18.798Z,96572.06
2017-11-04T11:19:44.976Z,96569.07
2017-11-04T11:22:11.321Z,96576.92
2017-11-04T11:24:37.687Z,96571.95
2017-11-04T11:27:04.883Z,96569.39
2017-11-04T11:29:30.980Z,96574.02
2017-11-04T11:31:57.075Z,96571.72
2017-11-04T11:34:24.163Z,96563.41
2017-11-04T11:36:50.558Z,96567.57
2017-11-04T11:39:18.337Z,96557.63
2017-11-04T11:41:44.855Z,96562.23
2017-11-04T11:44:11.706Z,96560.22
2017-11-04T11:46:38.023Z,96555.28
2017-11-04T11:49:04.095Z,96554.78
2017-11-04T11:51:30.239Z,96551.36
2017-11-04T11:53:56.293Z,96549.38
2017-11-04T11:56:22.418Z,96544.47
2017-11-04T11:58:48.630Z,96545.27
2017-11-04T12:01:15.108Z,96542.85
2017-11-04T12:03:41.227Z,96543.56
2017-11-04T12:06:07.548Z,96547.33
2017-11-04T12:08:33.604Z,96533.97
2017-11-04T12:10:59.617Z,96530.09
2017-11-04T12:13:26.090Z,96535.69
2017-11-04T12:15:52.237Z,96532.74
2017-11-04T12:18:18.995Z,96520.73
2017-11-04T12:20:45.493Z,96523.73
2017-11-04T12:23:11.736Z,96520.02
2017-11-04T12:25:37.862Z,96516.94
2017-11-04T12:28:04.118Z,96519.77
2017-11-04T12:30:30.311Z,96509.50
2017-11-04T12:32:56.293Z,96514.04
2017-11-04T12:35:22.499Z,96512.25
2017-11-04T12:37:48.752Z,96507.55
2017-11-04T12:40:14.907Z,96500.34
2017-11-04T12:42:41.211Z,96497.93
2017-11-04T12:45:07.292Z,96498.31
2017-11-04T12:47:33.483Z,96493.81
2017-11-04T12:49:59.690Z,96498.47
2017-11-04T12:52:25.773Z,96487.89
2017-11-04T12:54:51.777Z,96485.41
2017-11-04T12:57:17.940Z,96488.24
2017-11-04T12:59:44.105Z,96489.38
2017-11-04T13:02:10.271Z,96487.97
2017-11-04T13:04:36.482Z,96485.86
2017-11-04T13:07:02.683Z,96483.39
2017-11-04T13:09:28.743Z,96476.75
2017-11-04T13:11:55.270Z,96476.41
2017-11-04T13:14:21.539Z,96479.07
2017-11-04T13:16:47.619Z,96470.52
2017-11-04T13:19:13.899Z,96469.47
2017-11-04T13:21:40.105Z,96465.16
2017-11-04T13:24:06.618Z,96464.05
2017-11-04T13:26:32.994Z,96463.99
2017-11-04T13:28:59.485Z,96468.06
2017-11-04T13:31:25.706Z,96460.24
2017-11-04T13:33:52.095Z,96466.77
2017-11-04T13:36:18.273Z,96461.45
2017-11-04T13:38:44.387Z,96460.72
2017-11-04T13:41:11.611Z,96455.25
2017-11-04T13:43:37.929Z,96460.00
2017-11-04T13:46:04.077Z,96466.95
2017-11-04T13:48:30.477Z,96467.55
2017-11-04T13:50:56.566Z,96464.63
2017-11-04T13:53:22.935Z,96466.95
2017-11-04T13:55:49.712Z,96464.86
2017-11-04T13:58:16.424Z,96463.97
2017-11-04T14:00:42.568Z,96469.80
2017-11-04T14:03:09.021Z,96462.60
2017-11-04T14:05:35.081Z,96467.54
2017-11-04T14:08:01.192Z,96466.88
2017-11-04T14:10:27.318Z,96467.73
2017-11-04T14:12:53.457Z,96477.04
2017-11-04T14:15:19.526Z,96477.84
2017-11-04T14:17:45.778Z,96476.29
2017-11-04T14:20:11.889Z,96476.58
2017-11-04T14:22:38.386Z,96472.69
2017-11-04T14:27:55.977Z,96476.36
2017-11-04T14:30:22.291Z,96480.42
2017-11-04T14:32:52.482Z,96474.94
2017-11-04T14:35:31.653Z,96476.36
2017-11-04T14:37:58.908Z,96479.47
2017-11-04T14:40:25.089Z,96480.55
2017-11-04T14:42:59.146Z,96473.87
2017-11-04T14:45:27.183Z,96487.90
2017-11-04T14:47:53.670Z,96478.14
2017-11-04T14:50:23.143Z,96482.59
2017-11-04T14:52:50.299Z,96480.72
2017-11-04T14:55:16.689Z,96478.77
2017-11-04T14:57:42.940Z,96474.97
2017-11-04T15:00:09.137Z,96480.91
2017-11-04T15:02:35.378Z,96469.27
2017-11-04T15:05:05.064Z,96477.37
2017-11-04T15:07:31.284Z,96478.72
2017-11-04T15:09:57.554Z,96476.27
2017-11-04T15:12:23.869Z,96478.47
2017-11-04T15:14:50.906Z,96485.67
2017-11-04T15:17:32.759Z,96475.91
2017-11-04T15:19:59.430Z,96474.27
2017-11-04T15:22:34.287Z,96479.13
2017-11-04T15:25:00.501Z,96474.61
2017-11-04T15:27:27.486Z,96470.17
2017-11-04T15:30:06.687Z,96466.09
2017-11-04T15:32:32.888Z,96463.03
2017-11-04T15:38:12.483Z,96461.56
2017-11-04T15:40:39.284Z,96462.55
2017-11-04T15:43:16.262Z,96464.77
2017-11-04T15:45:50.572Z,96459.28
2017-11-04T15:48:23.720Z,96459.60
2017-11-04T15:50:57.001Z,96466.59
2017-11-04T15:53:23.219Z,96458.50
2017-11-04T15:55:49.636Z,96457.44
2017-11-04T15:58:15.753Z,96460.73
2017-11-04T16:00:42.059Z,96452.96
2017-11-04T16:05:45.290Z,96443.14
2017-11-04T16:08:11.494Z,96438.70
2017-11-04T16:10:37.779Z,96440.23
2017-11-04T16:15:39.873Z,96439.05
2017-11-04T16:18:06.089Z,96434.79
2017-11-04T16:23:05.088Z,96448.91
2017-11-04T16:25:31.388Z,96443.52
2017-11-04T16:27:57.558Z,96447.58
2017-11-04T16:33:24.248Z,96440.27
2017-11-04T16:36:11.090Z,96436.73
2017-11-04T16:38:46.543Z,96438.80
2017-11-04T16:44:35.286Z,96455.52
2017-11-04T16:49:49.682Z,96441.52
2017-11-04T16:52:26.606Z,96440.19
2017-11-04T16:55:14.838Z,96438.00
2017-11-04T16:57:50.564Z,96439.38
2017-11-04T17:00:17.834Z,96447.22
2017-11-04T17:02:45.093Z,96452.92
2017-11-04T17:05:11.864Z,96460.10
2017-11-04T17:07:38.217Z,96457.42
2017-11-04T17:10:04.340Z,96456.12
2017-11-04T17:12:30.414Z,96457.15
2017-11-04T17:14:56.728Z,96457.36
2017-11-04T17:17:22.996Z,96458.72
2017-11-04T17:19:49.783Z,96457.64
2017-11-04T17:22:16.870Z,96448.23
2017-11-04T17:24:42.985Z,96446.07
2017-11-04T17:27:09.089Z,96444.83
2017-11-04T17:29:35.215Z,96441.23
2017-11-04T17:32:01.384Z,96448.06
2017-11-04T17:34:27.778Z,96444.66
2017-11-04T17:36:54.005Z,96446.53
2017-11-04T17:39:20.636Z,96447.88
2017-11-04T17:41:46.775Z,96446.70
2017-11-04T17:44:12.797Z,96451.69
2017-11-04T17:46:38.896Z,96452.38
2017-11-04T17:49:05.321Z,96448.02
2017-11-04T17:51:31.455Z,96451.83
2017-11-04T17:53:57.503Z,96450.31
2017-11-04T17:56:24.268Z,96443.53
2017-11-04T17:58:50.595Z,96445.36
2017-11-04T18:01:17.104Z,96440.58
2017-11-04T18:03:43.952Z,96450.84
2017-11-04T18:06:10.493Z,96450.25
2017-11-04T18:08:36.805Z,96457.89
2017-11-04T18:11:02.958Z,96451.36
2017-11-04T18:13:29.307Z,96444.05
2017-11-04T18:15:55.410Z,96441.39
2017-11-04T18:18:22.113Z,96434.61
2017-11-04T18:20:48.385Z,96437.88
2017-11-04T18:23:14.578Z,96443.67
2017-11-04T18:45:18.687Z,96406.02
2017-11-04T18:47:44.901Z,96405.87
2017-11-04T18:50:11.121Z,96407.61
2017-11-04T18:52:37.391Z,96406.36
2017-11-04T18:55:03.573Z,96403.00
2017-11-04T18:57:29.752Z,96401.00
2017-11-04T18:59:56.462Z,96401.31
2017-11-04T19:02:22.531Z,96399.83
2017-11-04T19:04:48.665Z,96398.47
2017-11-04T19:07:16.127Z,96399.73
2017-11-04T19:09:42.347Z,96393.13
2017-11-04T19:14:39.557Z,96394.79
2017-11-04T19:17:06.032Z,96387.73
2017-11-04T19:19:32.465Z,96389.77
2017-11-04T19:21:58.802Z,96399.39
2017-11-04T19:24:25.135Z,96399.47
2017-11-04T19:26:51.381Z,96400.98
2017-11-04T19:29:17.644Z,96401.31
2017-11-04T19:31:43.801Z,96405.50
2017-11-04T19:34:10.090Z,96403.24
2017-11-04T19:36:36.256Z,96395.02
2017-11-04T19:39:02.599Z,96392.75
2017-11-04T19:41:28.972Z,96386.49
2017-11-04T19:43:55.256Z,96387.73
2017-11-04T19:46:21.524Z,96384.97
2017-11-04T19:48:47.991Z,96381.88
2017-11-04T19:51:14.178Z,96385.31
2017-11-04T19:53:40.315Z,96383.80
2017-11-04T19:56:06.546Z,96378.36
2017-11-04T19:58:32.760Z,96380.97
2017-11-04T20:00:58.828Z,96379.52
2017-11-04T20:03:25.067Z,96381.69
2017-11-04T20:05:51.297Z,96375.66
2017-11-04T20:08:17.461Z,96379.69
2017-11-04T20:10:43.575Z,96382.28
2017-11-04T20:13:10.032Z,96373.73
2017-11-04T20:15:36.232Z,96369.46
2017-11-04T20:18:02.471Z,96373.00
2017-11-04T20:20:28.684Z,96370.96
2017-11-04T20:22:54.927Z,96373.31
2017-11-04T20:25:21.403Z,96373.08
2017-11-04T20:27:48.000Z,96370.63
2017-11-04T20:30:14.197Z,96368.55
2017-11-04T20:32:40.703Z,96368.88
2017-11-04T20:35:06.892Z,96375.48
2017-11-04T20:37:33.504Z,96368.72
2017-11-04T20:40:01.373Z,96375.17
2017-11-04T20:42:27.822Z,96378.09
2017-11-04T20:44:54.015Z,96383.63
2017-11-04T20:47:20.140Z,96382.22
2017-11-04T20:49:46.546Z,96372.24
2017-11-04T20:52:12.713Z,96369.20
2017-11-04T20:54:39.058Z,96372.98
2017-11-04T20:57:05.185Z,96360.64
2017-11-04T20:59:31.616Z,96363.52
2017-11-04T21:01:57.706Z,96357.79
2017-11-04T21:04:25.110Z,96348.75
2017-11-04T21:06:51.511Z,96339.94
2017-11-04T21:09:17.788Z,96340.78
2017-11-04T21:11:44.244Z,96323.17
2017-11-04T21:14:10.375Z,96327.13
2017-11-04T21:16:36.548Z,96320.66
2017-11-04T21:19:03.640Z,96307.27
2017-11-04T21:21:29.933Z,96283.61
2017-11-04T21:23:56.039Z,96272.90
2017-11-04T21:26:22.857Z,96255.39
2017-11-04T21:28:49.590Z,96246.58
2017-11-04T21:31:15.953Z,96240.88
2017-11-04T21:33:42.229Z,96243.22
2017-11-04T21:36:08.860Z,96243.08
2017-11-04T21:38:35.074Z,96238.55
2017-11-04T21:41:01.784Z,96243.33
2017-11-04T21:43:28.035Z,96238.20
2017-11-04T21:45:54.420Z,96241.52
2017-11-04T21:48:20.686Z,96236.05
2017-11-04T21:50:46.857Z,96232.52
2017-11-04T21:53:13.052Z,96223.14
2017-11-04T21:55:39.303Z,96225.71
2017-11-04T21:58:05.558Z,96221.16
2017-11-04T22:00:32.105Z,96219.98
2017-11-04T22:02:58.297Z,96220.05
2017-11-04T22:05:24.546Z,96220.28
2017-11-04T22:07:51.350Z,96218.73
2017-11-04T22:10:17.684Z,96219.23
2017-11-04T22:12:43.918Z,96222.19
2017-11-04T22:15:10.135Z,96218.20
2017-11-04T22:17:36.886Z,96212.64
2017-11-04T22:20:03.378Z,96209.70
2017-11-04T22:22:29.605Z,96205.31
2017-11-04T22:24:56.036Z,96206.91
2017-11-04T22:27:22.081Z,96201.34
2017-11-04T22:29:48.345Z,96209.77
2017-11-04T22:32:14.510Z,96210.05
2017-11-04T22:34:40.595Z,96205.19
2017-11-04T22:37:06.712Z,96196.13
2017-11-04T22:39:32.824Z,96193.46
2017-11-04T22:41:58.967Z,96183.48
2017-11-04T22:44:25.292Z,96177.95
2017-11-04T22:46:51.669Z,96168.95
2017-11-04T22:49:17.877Z,96163.12
2017-11-04T22:51:44.148Z,96164.75
2017-11-04T22:54:10.655Z,96164.31
2017-11-04T22:56:36.823Z,96154.02
2017-11-04T22:59:03.148Z,96138.61
2017-11-04T23:01:29.230Z,96133.08
2017-11-04T23:03:55.387Z,96123.78
2017-11-04T23:06:21.518Z,96123.01
2017-11-04T23:08:47.910Z,96120.63
2017-11-04T23:11:14.181Z,96125.30
2017-11-04T23:13:40.284Z,96126.12
2017-11-04T23:16:06.403Z,96128.97
2017-11-04T23:18:32.452Z,96116.62
2017-11-04T23:20:58.575Z,96106.75
2017-11-04T23:23:24.731Z,96102.23
2017-11-04T23:25:50.779Z,96097.94
2017-11-04T23:28:16.935Z,96108.59
2017-11-04T23:30:43.029Z,96115.22
2017-11-04T23:33:09.099Z,96115.88
2017-11-04T23:35:35.172Z,96123.70
2017-11-04T23:38:01.310Z,96121.69
2017-11-04T23:40:27.323Z,96122.73
2017-11-04T23:42:53.406Z,96127.84
2017-11-04T23:45:19.640Z,96129.98
2017-11-04T23:47:45.737Z,96128.48
2017-11-04T23:50:11.836Z,96140.94
2017-11-04T23:52:37.937Z,96141.74
2017-11-04T23:55:04.025Z,96141.19
2017-11-04T23:57:30.136Z,96138.32
2017-11-04T23:59:56.214Z,96147.00
